createdAt,value
2018-11-04T11:24:43.545Z,28.47
2018-11-04T11:27:12.029Z,27.63
2018-11-04T11:29:40.480Z,27.90
2018-11-04T11:32:09.346Z,27.80
2018-11-04T11:34:38.144Z,27.40
2018-11-04T11:37:06.885Z,29.83
2018-11-04T11:39:36.195Z,26.97
2018-11-04T11:42:04.713Z,26.83
2018-11-04T11:44:33.714Z,26.87
2018-11-04T11:47:02.913Z,26.87
2018-11-04T11:49:31.497Z,30.20
2018-11-04T11:51:59.988Z,25.43
2018-11-04T11:54:28.547Z,24.80
2018-11-04T11:56:58.224Z,25.43
2018-11-04T11:59:26.944Z,27.60
2018-11-04T12:01:56.016Z,25.50
2018-11-04T12:04:24.723Z,24.93
2018-11-04T12:06:53.363Z,23.43
2018-11-04T12:09:22.018Z,25.73
2018-11-04T12:11:50.530Z,24.70
2018-11-04T12:14:19.119Z,22.40
2018-11-04T12:16:47.669Z,25.80
2018-11-04T12:19:16.125Z,22.70
2018-11-04T12:21:45.298Z,21.60
2018-11-04T12:24:14.186Z,23.77
2018-11-04T12:26:42.838Z,21.10
2018-11-04T12:29:11.456Z,21.50
2018-11-04T12:31:40.191Z,20.57
2018-11-04T12:34:08.910Z,21.30
2018-11-04T12:36:38.093Z,20.77
2018-11-04T12:39:31.287Z,22.20
2018-11-04T12:41:59.704Z,21.40
2018-11-04T12:44:29.059Z,21.27
2018-11-04T12:47:00.449Z,19.47
2018-11-04T12:49:31.722Z,20.20
2018-11-04T12:52:05.077Z,19.87
2018-11-04T13:01:15.764Z,18.40
2018-11-04T13:03:45.484Z,20.40
2018-11-04T13:06:14.115Z,17.67
2018-11-04T13:08:43.065Z,17.47
2018-11-04T13:11:11.838Z,19.93
2018-11-04T13:13:40.262Z,19.23
2018-11-04T13:16:08.918Z,17.33
2018-11-04T13:18:37.779Z,17.53
2018-11-04T13:21:06.803Z,19.07
2018-11-04T13:23:35.786Z,16.93
2018-11-04T13:26:04.209Z,17.93
2018-11-04T13:28:32.963Z,17.10
2018-11-04T13:31:01.606Z,22.53
2018-11-04T13:33:30.178Z,17.27
2018-11-04T13:35:58.747Z,15.53
2018-11-04T13:38:28.014Z,16.97
2018-11-04T13:40:56.480Z,16.23
2018-11-04T14:13:35.587Z,17.97
2018-11-04T14:16:04.840Z,19.53
2018-11-04T14:18:33.530Z,18.13
2018-11-04T14:21:02.417Z,15.73
2018-11-04T14:23:31.152Z,17.73
2018-11-04T14:25:59.694Z,16.70
2018-11-04T14:28:28.863Z,18.27
2018-11-04T14:30:57.562Z,17.50
2018-11-04T14:33:26.834Z,17.67
2018-11-04T14:35:55.528Z,17.97
2018-11-04T14:41:00.215Z,19.77
2018-11-04T14:50:37.014Z,23.97
2018-11-04T14:53:06.456Z,18.40
2018-11-04T14:55:34.854Z,24.63
2018-11-04T14:58:03.501Z,29.83
2018-11-04T15:00:35.041Z,21.90
2018-11-04T15:03:04.142Z,23.50
2018-11-04T15:05:32.692Z,19.50
2018-11-04T15:08:03.361Z,23.20
2018-11-04T15:10:31.956Z,20.37
2018-11-04T15:13:00.584Z,23.23
2018-11-04T15:15:29.441Z,20.63
2018-11-04T15:17:58.184Z,21.40
2018-11-04T15:20:26.693Z,22.60
2018-11-04T15:22:55.902Z,23.27
2018-11-04T15:25:24.457Z,21.63
2018-11-04T15:27:52.900Z,23.93
2018-11-04T15:30:21.323Z,25.93
2018-11-04T15:32:49.841Z,24.77
2018-11-04T15:35:18.537Z,24.80
2018-11-04T15:37:47.217Z,25.10
2018-11-04T15:40:16.536Z,26.93
2018-11-04T15:42:44.992Z,25.23
2018-11-04T15:45:14.572Z,26.50
2018-11-04T15:47:43.111Z,28.67
2018-11-04T15:50:13.411Z,25.23
2018-11-04T15:52:42.356Z,29.03
2018-11-04T15:55:10.996Z,26.63
2018-11-04T15:57:39.543Z,27.57
2018-11-04T16:00:10.193Z,29.90
2018-11-04T16:02:39.061Z,28.00
2018-11-04T16:05:08.392Z,28.80
2018-11-04T16:07:36.952Z,26.53
2018-11-04T16:10:07.149Z,29.50
2018-11-04T16:12:35.838Z,28.43
2018-11-04T16:15:04.681Z,27.53
2018-11-04T16:17:33.176Z,29.60
2018-11-04T16:20:28.784Z,27.20
2018-11-04T16:22:57.909Z,25.50
2018-11-04T16:25:28.509Z,23.77
2018-11-04T16:28:10.713Z,24.27
2018-11-04T16:30:53.442Z,23.50
2018-11-04T16:33:22.083Z,22.40
2018-11-04T16:35:50.521Z,23.37
2018-11-04T16:38:19.130Z,21.97
2018-11-04T16:40:47.989Z,22.73
2018-11-04T16:43:22.973Z,19.90
2018-11-04T16:50:11.020Z,19.13
2018-11-04T16:52:40.573Z,21.13
2018-11-04T16:55:10.447Z,20.07
2018-11-04T16:57:41.872Z,20.00
2018-11-04T17:00:19.661Z,25.77
2018-11-04T17:02:48.380Z,23.50
2018-11-04T17:05:17.458Z,23.80
2018-11-04T17:07:47.902Z,20.70
2018-11-04T17:10:16.727Z,22.07
2018-11-04T17:12:46.499Z,20.37
2018-11-04T17:15:15.878Z,20.33
2018-11-04T17:17:55.838Z,21.53
2018-11-04T17:20:24.529Z,21.23
2018-11-04T17:23:00.527Z,21.03
2018-11-04T17:25:29.585Z,23.47
2018-11-04T17:27:58.232Z,21.40
2018-11-04T17:30:30.402Z,25.03
2018-11-04T17:33:00.704Z,21.27
2018-11-04T17:35:30.317Z,21.87
2018-11-04T17:37:59.820Z,21.07
2018-11-04T17:40:28.812Z,21.90
2018-11-04T17:42:58.302Z,21.20
2018-11-04T17:45:28.645Z,20.70
2018-11-04T17:47:57.496Z,23.43
2018-11-04T17:50:26.154Z,24.17
2018-11-04T17:52:55.921Z,22.00
2018-11-04T17:55:24.707Z,22.03
2018-11-04T17:57:53.342Z,22.13
2018-11-04T18:00:21.962Z,22.60
2018-11-04T18:02:54.379Z,22.57
2018-11-04T18:05:23.792Z,20.90
2018-11-04T18:07:53.301Z,23.63
2018-11-04T18:10:22.169Z,24.17
2018-11-04T18:12:50.673Z,25.40
2018-11-04T18:15:20.175Z,23.07
2018-11-04T18:17:48.716Z,22.97
2018-11-04T18:20:17.342Z,22.63
2018-11-04T18:22:45.928Z,22.63
2018-11-04T18:25:14.469Z,26.03
2018-11-04T18:27:43.819Z,23.37
2018-11-04T18:30:15.154Z,23.37
2018-11-04T18:32:44.943Z,21.30
2018-11-04T18:35:13.941Z,18.63
2018-11-04T18:37:42.546Z,18.63
2018-11-04T18:40:13.666Z,20.53
2018-11-04T18:42:46.744Z,20.20
2018-11-04T18:45:16.414Z,20.33
2018-11-04T18:47:45.069Z,22.23
2018-11-04T18:50:14.624Z,26.90
2018-11-04T18:52:43.624Z,23.80
2018-11-04T18:55:12.743Z,30.80
2018-11-04T18:57:47.898Z,30.27
2018-11-04T19:00:17.830Z,36.83
2018-11-04T19:02:47.289Z,36.73
2018-11-04T19:05:16.686Z,37.23
2018-11-04T19:07:46.769Z,42.57
2018-11-04T19:10:21.966Z,41.10
2018-11-04T19:12:53.623Z,45.00
2018-11-04T19:15:22.175Z,40.20
2018-11-04T19:17:52.815Z,32.93
2018-11-04T19:20:40.372Z,38.83
2018-11-04T19:23:18.741Z,35.43
2018-11-04T19:25:52.713Z,34.77
2018-11-04T19:28:21.469Z,35.20
2018-11-04T19:30:50.242Z,32.57
2018-11-04T19:33:18.672Z,30.93
2018-11-04T19:35:47.145Z,27.93
2018-11-04T19:38:16.327Z,26.70
2018-11-04T19:40:44.892Z,27.27
2018-11-04T19:43:13.451Z,24.90
2018-11-04T19:45:41.997Z,23.93
2018-11-04T19:48:10.823Z,21.70
2018-11-04T19:50:39.367Z,21.10
2018-11-04T19:53:07.948Z,22.87
2018-11-04T19:55:36.517Z,18.87
2018-11-04T19:58:05.201Z,21.03
2018-11-04T20:00:33.744Z,21.80
2018-11-04T20:03:03.523Z,22.07
2018-11-04T20:05:32.952Z,22.43
2018-11-04T20:08:01.641Z,22.87
2018-11-04T20:10:30.316Z,22.77
2018-11-04T20:13:04.317Z,23.80
2018-11-04T20:15:32.891Z,21.70
2018-11-04T20:18:05.861Z,18.10
2018-11-04T20:20:34.343Z,20.37
2018-11-04T20:23:03.699Z,20.47
2018-11-04T20:25:40.065Z,21.30
2018-11-04T20:28:09.618Z,20.83
2018-11-04T20:30:38.366Z,19.93
2018-11-04T20:33:14.215Z,21.20
2018-11-04T20:35:43.276Z,19.57
2018-11-04T20:38:12.558Z,18.73
2018-11-04T20:40:47.918Z,21.67
2018-11-04T20:43:17.945Z,16.50
2018-11-04T20:45:47.555Z,17.77
2018-11-04T20:48:23.705Z,16.50
2018-11-04T20:51:03.156Z,23.70
2018-11-04T20:53:43.387Z,18.33
2018-11-04T20:56:21.423Z,19.47
2018-11-04T20:58:52.641Z,18.47
2018-11-04T21:01:21.498Z,19.47
2018-11-04T21:03:50.862Z,38.60
2018-11-04T21:06:20.188Z,68.27
2018-11-04T21:08:48.876Z,61.67
2018-11-04T21:11:20.834Z,61.03
2018-11-04T21:13:49.913Z,53.87
2018-11-04T21:16:19.738Z,53.97
2018-11-04T21:18:49.362Z,48.07
2018-11-04T21:21:19.134Z,44.50
2018-11-04T21:23:49.868Z,47.63
2018-11-04T21:26:20.320Z,38.97
2018-11-04T21:28:53.625Z,39.00
2018-11-04T21:31:52.145Z,38.83
2018-11-04T21:34:22.326Z,36.83
2018-11-04T21:36:51.806Z,38.27
2018-11-04T21:39:20.747Z,39.23
2018-11-04T21:41:54.281Z,38.17
2018-11-04T21:44:23.979Z,37.93
2018-11-04T21:47:05.423Z,39.60
2018-11-04T22:09:43.842Z,39.47
2018-11-04T22:12:14.632Z,37.77
2018-11-04T22:14:44.944Z,37.10
2018-11-04T22:17:15.611Z,36.83
2018-11-04T22:19:46.195Z,38.10
2018-11-04T22:22:15.753Z,40.43
2018-11-04T22:24:44.909Z,38.37
2018-11-04T22:27:15.034Z,36.80
2018-11-04T22:29:44.573Z,36.33
2018-11-04T22:32:13.529Z,39.30
2018-11-04T22:34:42.851Z,34.87
2018-11-04T22:37:11.650Z,37.30
2018-11-04T22:39:40.598Z,37.20
2018-11-04T22:42:09.292Z,35.73
2018-11-04T22:44:37.953Z,32.60
2018-11-04T22:47:06.653Z,34.13
2018-11-04T22:49:35.450Z,36.50
2018-11-04T22:52:05.890Z,38.37
2018-11-04T22:54:35.264Z,33.97
2018-11-04T22:57:04.016Z,39.73
2018-11-04T22:59:32.727Z,33.47
2018-11-04T23:02:01.902Z,35.13
2018-11-04T23:04:36.152Z,34.70
2018-11-04T23:07:05.057Z,35.43
2018-11-04T23:09:33.955Z,43.53
2018-11-04T23:12:03.527Z,37.50
2018-11-04T23:14:32.330Z,35.00
2018-11-04T23:17:01.020Z,36.30
2018-11-04T23:19:30.277Z,34.97
2018-11-04T23:21:59.028Z,32.63
2018-11-04T23:24:27.970Z,31.87
2018-11-04T23:26:56.622Z,38.83
2018-11-04T23:29:25.145Z,32.73
2018-11-04T23:31:53.805Z,35.00
2018-11-04T23:34:23.273Z,32.50
2018-11-04T23:36:51.807Z,32.47
2018-11-04T23:39:20.833Z,33.53
2018-11-04T23:41:49.527Z,31.33
2018-11-04T23:44:18.304Z,31.77
2018-11-04T23:46:47.100Z,30.83
2018-11-04T23:49:16.789Z,28.83
2018-11-04T23:51:45.660Z,28.17
2018-11-04T23:54:14.497Z,28.50
2018-11-04T23:56:43.423Z,29.23
2018-11-04T23:59:11.863Z,28.00
